LYNI/INI METAR and TAF weather

Enter ICAO airport designator
Station Type Date Time Source
LYNI METAR 2020/01/20 22:00 UTC NOAA

LYNI 202200Z 20003KT 9999 BKN033 M01/M06 Q1046 NOSIG


Station Type Date Time Source
LYNI Decoded METAR 2020/01/20 22:00 UTC NOAA

Nis, Serbia and Montenegro (LYNI) 43-20N 021-54E 202M
Jan 20, 2020 - 05:00 PM EST / 2020.01.20 2200 UTC
Wind: from the SSW (200 degrees) at 3 MPH (3 KT):0
Visibility: greater than 7 mile(s):0
Sky conditions: mostly cloudy
Temperature: 30 F (-1 C)
Dew Point: 21 F (-6 C)
Relative Humidity: 68%
Pressure (altimeter): 30.89 in. Hg (1046 hPa)
ob: LYNI 202200Z 20003KT 9999 BKN033 M01/M06 Q1046 NOSIG
cycle: 22

Station Type Date Time Source
LYNI TAF 2020/01/20 18:21 UTC NOAA

TAF LYNI 201700Z 2018/2118 32006KT 9999 SCT013 BKN027 TX02/2113Z TNM02/2105Z
TEMPO 2105/2108 4000 BR BKN007 OVC023

Example: see airport list